Overview Statistics Trail Chart Weather Telemetry Raw packets
 

This is the latest recevied weather packets stored in our database for station/object KC5TIL. If no packets are shown the sender has not sent any weather packets the latest 10 day(s).

<< 8 9 10 11 12 13 14 >>
Time Temp. Humidity Pressure Rain* Wind** Luminosity Snow
1788553028 37.78° C 43% 1013 hPa 0 mm - 491 W/m² -
1788552728 37.78° C 42% 1013 hPa 0 mm - 554 W/m² -
1788552423 37.22° C 45% 1013.2 hPa 0 mm - 603 W/m² -
1788552117 37.22° C 43% 1013.3 hPa 0 mm - 189 W/m² -
1788551815 38.33° C 42% 1013.3 hPa 0 mm - 625 W/m² -
1788551510 37.78° C 42% 1013.5 hPa 0 mm - 613 W/m² -
1788551210 37.22° C 45% 1013.5 hPa 0 mm - 606 W/m² -
1788550904 37.22° C 45% 1013.6 hPa 0 mm - 609 W/m² -
1788550599 36.67° C 45% 1013.3 hPa 0 mm - 638 W/m² -
1788550296 36.11° C 48% 1013.6 hPa 0 mm - 638 W/m² -
1788549996 36.11° C 49% 1013.7 hPa 0 mm - 653 W/m² -
1788549691 35.56° C 49% 1013.7 hPa 0 mm - 658 W/m² -
1788549388 36.11° C 50% 1013.4 hPa 0 mm - 186 W/m² -
1788549084 37.22° C 47% 1013.8 hPa 0 mm - 650 W/m² -
1788548779 36.11° C 47% 1013.8 hPa 0 mm - 665 W/m² -
1788548475 35.56° C 51% 1014.1 hPa 0 mm - 554 W/m² -
1788548172 35.56° C 50% 1013.9 hPa 0 mm - 379 W/m² -
1788547867 35° C 53% 1014.1 hPa 0 mm - 368 W/m² -
1788547565 36.11° C 50% 1014.3 hPa 0 mm - 419 W/m² -
1788547261 36.11° C 48% 1014.3 hPa 0 mm - 344 W/m² -
1788546956 36.11° C 48% 1014.4 hPa 0 mm - 732 W/m² -
1788546651 37.22° C 47% 1014.4 hPa 0 mm - 649 W/m² -
1788546347 36.67° C 45% 1014.4 hPa 0 mm - 653 W/m² -
1788546041 36.67° C 46% 1014.6 hPa 0 mm - 691 W/m² -
1788545737 36.67° C 47% 1014.5 hPa 0 mm - 668 W/m² -

* Rain latest hour (hover to see other rain measurements)
** Current wind speed in m/s (hover to see current wind gust speed)